createdAt,value
2023-05-24T00:01:29.340Z,8.80
2023-05-24T00:06:34.928Z,11.00
2023-05-24T00:11:37.601Z,8.55
2023-05-24T00:16:40.468Z,10.75
2023-05-24T00:21:43.055Z,10.68
2023-05-24T00:26:45.657Z,8.70
2023-05-24T00:31:48.261Z,10.82
2023-05-24T00:36:50.908Z,8.73
2023-05-24T00:41:53.458Z,9.02
2023-05-24T00:46:56.384Z,10.02
2023-05-24T00:51:59.976Z,10.23
2023-05-24T00:57:02.596Z,6.93
2023-05-24T01:02:05.324Z,8.07
2023-05-24T01:07:22.020Z,6.90
2023-05-24T01:12:59.623Z,5.43
2023-05-24T01:18:11.721Z,7.65
2023-05-24T01:23:26.446Z,7.07
2023-05-24T01:28:31.796Z,7.78
2023-05-24T01:33:34.420Z,8.30
2023-05-24T01:38:39.022Z,8.77
2023-05-24T01:43:48.877Z,8.38
2023-05-24T01:49:07.506Z,8.30
2023-05-24T01:54:12.182Z,7.75
2023-05-24T01:59:15.871Z,7.45
2023-05-24T02:04:18.670Z,9.38
2023-05-24T02:09:21.295Z,7.78
2023-05-24T02:14:26.424Z,7.68
2023-05-24T02:19:28.974Z,6.75
2023-05-24T02:24:31.417Z,8.25
2023-05-24T02:29:33.889Z,8.40
2023-05-24T02:34:36.527Z,8.10
2023-05-24T02:39:39.146Z,8.70
2023-05-24T02:44:42.981Z,6.82
2023-05-24T02:49:45.797Z,6.90
2023-05-24T02:54:48.569Z,6.57
2023-05-24T02:59:53.360Z,6.15
2023-05-24T03:04:55.941Z,6.00
2023-05-24T03:09:58.601Z,6.00
2023-05-24T03:15:02.191Z,5.95
2023-05-24T03:20:07.336Z,5.82
2023-05-24T03:25:10.426Z,5.20
2023-05-24T03:30:14.054Z,4.70
2023-05-24T03:35:27.694Z,4.82
2023-05-24T03:40:33.750Z,5.18
2023-05-24T03:45:48.475Z,4.88
2023-05-24T03:50:51.459Z,5.40
2023-05-24T03:55:54.147Z,5.35
2023-05-24T04:00:57.994Z,4.55
2023-05-24T04:06:00.490Z,4.38
2023-05-24T04:11:03.026Z,4.38
2023-05-24T04:16:05.689Z,3.92
2023-05-24T04:21:14.640Z,3.72
2023-05-24T04:26:17.859Z,5.18
2023-05-24T04:31:21.591Z,4.65
2023-05-24T04:36:25.225Z,5.30
2023-05-24T04:41:29.175Z,4.75
2023-05-24T04:46:31.787Z,3.95
2023-05-24T04:51:34.577Z,5.07
2023-05-24T04:56:38.628Z,5.35
2023-05-24T05:01:41.527Z,5.97
2023-05-24T05:06:44.908Z,5.25
2023-05-24T05:11:48.335Z,4.47
2023-05-24T05:16:51.140Z,4.90
2023-05-24T05:21:53.773Z,4.18
2023-05-24T05:26:56.402Z,4.90
2023-05-24T05:31:58.953Z,4.13
2023-05-24T05:37:01.804Z,4.07
2023-05-24T05:42:04.570Z,4.68
2023-05-24T05:47:08.730Z,5.00
2023-05-24T05:52:11.818Z,4.30
2023-05-24T05:57:16.374Z,4.55
2023-05-24T06:02:19.333Z,3.97
2023-05-24T06:07:21.764Z,4.53
2023-05-24T06:12:24.260Z,3.83
2023-05-24T06:17:28.240Z,3.70
2023-05-24T06:22:30.766Z,4.10
2023-05-24T06:27:33.309Z,3.38
2023-05-24T06:32:36.128Z,3.95
2023-05-24T06:37:38.721Z,3.15
2023-05-24T06:42:41.437Z,3.65
2023-05-24T06:47:44.068Z,3.05
2023-05-24T06:52:46.796Z,2.03
2023-05-24T06:57:49.296Z,3.13
2023-05-24T07:02:51.915Z,2.58
2023-05-24T07:07:54.410Z,3.22
2023-05-24T07:12:56.968Z,2.10
2023-05-24T07:18:00.263Z,2.83
2023-05-24T07:23:03.976Z,2.53
2023-05-24T07:28:07.064Z,2.83
2023-05-24T07:33:09.569Z,2.80
2023-05-24T07:38:12.629Z,2.13
2023-05-24T07:43:15.536Z,1.27
2023-05-24T07:48:19.152Z,2.65
2023-05-24T07:53:23.004Z,3.03
2023-05-24T07:58:25.650Z,2.97
2023-05-24T08:03:28.853Z,2.00
2023-05-24T08:08:31.703Z,1.95
2023-05-24T08:13:34.567Z,2.72
2023-05-24T08:18:37.090Z,1.90
2023-05-24T08:23:39.555Z,3.07
2023-05-24T08:28:42.047Z,2.27
2023-05-24T08:33:44.641Z,3.03
2023-05-24T08:38:47.219Z,3.13
2023-05-24T08:43:50.985Z,1.07
2023-05-24T08:48:53.894Z,2.57
2023-05-24T08:53:59.093Z,0.80
2023-05-24T08:59:01.783Z,2.37
2023-05-24T09:04:05.965Z,2.27
2023-05-24T09:09:11.138Z,3.73
2023-05-24T09:14:14.433Z,2.70
2023-05-24T09:19:17.610Z,2.50
2023-05-24T09:24:20.389Z,2.63
2023-05-24T09:29:27.101Z,2.67
2023-05-24T09:34:29.642Z,2.90
2023-05-24T09:39:32.468Z,2.65
2023-05-24T09:44:35.185Z,2.95
2023-05-24T09:49:38.280Z,3.25
2023-05-24T09:54:41.784Z,3.15
2023-05-24T09:59:44.838Z,4.75
2023-05-24T10:04:47.961Z,1.65
2023-05-24T10:09:51.803Z,2.63
2023-05-24T10:14:57.597Z,1.65
2023-05-24T10:20:00.211Z,4.57
2023-05-24T10:25:05.581Z,3.05
2023-05-24T10:30:25.985Z,2.95
2023-05-24T10:35:30.502Z,3.55
2023-05-24T10:40:33.539Z,6.32
2023-05-24T10:45:41.409Z,4.15
2023-05-24T10:50:44.810Z,5.57
2023-05-24T10:56:06.354Z,6.32
2023-05-24T11:01:14.376Z,4.18
2023-05-24T11:06:17.024Z,3.45
2023-05-24T11:11:30.345Z,4.80
2023-05-24T11:16:40.483Z,1.13
2023-05-24T11:21:45.664Z,2.63
2023-05-24T11:26:48.228Z,4.45
2023-05-24T11:31:54.299Z,4.53
2023-05-24T11:36:57.037Z,4.82
2023-05-24T11:42:00.303Z,5.40
2023-05-24T11:47:04.881Z,3.47
2023-05-24T11:52:07.580Z,2.60
2023-05-24T11:57:14.142Z,5.55
2023-05-24T12:02:17.012Z,3.50
2023-05-24T12:07:19.527Z,5.05
2023-05-24T12:12:30.281Z,4.90
2023-05-24T12:17:36.790Z,4.55
2023-05-24T12:22:39.315Z,4.95
2023-05-24T12:27:48.367Z,4.53
2023-05-24T12:32:54.343Z,4.43
2023-05-24T12:38:00.255Z,3.28
2023-05-24T12:43:04.812Z,2.95
2023-05-24T12:48:08.849Z,3.78
2023-05-24T12:53:11.839Z,6.10
2023-05-24T12:58:17.210Z,4.65
2023-05-24T13:03:19.729Z,7.00
2023-05-24T13:08:22.726Z,4.82
2023-05-24T13:13:25.415Z,7.18
2023-05-24T13:18:28.180Z,6.00
2023-05-24T13:23:31.661Z,4.90
2023-05-24T13:28:34.483Z,7.18
2023-05-24T13:33:37.921Z,3.85
2023-05-24T13:38:40.727Z,3.75
2023-05-24T13:43:43.295Z,4.53
2023-05-24T13:48:45.830Z,4.18
2023-05-24T13:53:48.579Z,3.47
2023-05-24T13:58:51.505Z,6.15
2023-05-24T14:03:54.455Z,6.22
2023-05-24T14:08:57.143Z,5.38
2023-05-24T14:19:06.405Z,4.35
2023-05-24T14:24:09.810Z,5.03
2023-05-24T14:29:12.409Z,3.53
2023-05-24T14:34:14.948Z,3.80
2023-05-24T14:39:17.559Z,5.90
2023-05-24T14:44:20.161Z,4.30
2023-05-24T14:49:22.660Z,5.00
2023-05-24T14:54:25.074Z,3.10
2023-05-24T14:59:27.649Z,5.20
2023-05-24T15:04:30.387Z,5.07
2023-05-24T15:09:32.988Z,3.83
2023-05-24T15:14:35.419Z,6.28
2023-05-24T15:19:38.501Z,4.25
2023-05-24T15:24:41.073Z,5.15
2023-05-24T15:29:43.530Z,3.88
2023-05-24T15:34:46.042Z,4.28
2023-05-24T15:39:49.589Z,4.97
2023-05-24T15:44:52.153Z,5.22
2023-05-24T15:49:55.222Z,3.97
2023-05-24T15:54:57.695Z,5.43
2023-05-24T16:00:01.355Z,6.43
2023-05-24T16:05:04.038Z,5.65
2023-05-24T16:10:07.165Z,5.07
2023-05-24T16:15:10.603Z,4.75
2023-05-24T16:20:13.427Z,4.55
2023-05-24T16:25:16.143Z,5.72
2023-05-24T16:30:19.031Z,4.45
2023-05-24T16:35:21.465Z,4.80
2023-05-24T16:40:23.927Z,4.25
2023-05-24T16:45:26.405Z,4.38
2023-05-24T16:50:28.902Z,5.30
2023-05-24T16:55:31.458Z,6.13
2023-05-24T17:00:33.963Z,4.90
2023-05-24T17:05:36.446Z,3.85
2023-05-24T17:10:39.078Z,4.82
2023-05-24T17:15:41.767Z,3.28
2023-05-24T17:20:44.672Z,6.13
2023-05-24T17:25:47.401Z,4.50
2023-05-24T17:30:49.954Z,4.05
2023-05-24T17:35:52.952Z,2.95
2023-05-24T17:40:59.842Z,6.20
2023-05-24T17:46:04.209Z,6.10
2023-05-24T17:51:08.997Z,5.07
2023-05-24T17:56:12.052Z,3.70
2023-05-24T18:01:15.368Z,5.75
2023-05-24T18:06:17.892Z,4.32
2023-05-24T18:11:20.342Z,6.82
2023-05-24T18:16:22.982Z,6.95
2023-05-24T18:21:25.539Z,7.03
2023-05-24T18:26:28.316Z,7.03
2023-05-24T18:31:30.925Z,5.95
2023-05-24T18:36:33.428Z,5.30
2023-05-24T18:41:36.074Z,6.85
2023-05-24T18:46:38.933Z,4.50
2023-05-24T18:51:41.577Z,3.88
2023-05-24T18:56:45.662Z,5.65
2023-05-24T19:01:48.263Z,6.18
2023-05-24T19:06:51.093Z,4.93
2023-05-24T19:11:59.144Z,4.95
2023-05-24T19:17:01.686Z,4.75
2023-05-24T19:22:04.401Z,4.28
2023-05-24T19:27:07.125Z,5.75
2023-05-24T19:32:11.623Z,3.97
2023-05-24T19:37:15.793Z,5.18
2023-05-24T19:42:18.273Z,5.75
2023-05-24T19:47:20.991Z,4.72
2023-05-24T19:52:23.644Z,5.57
2023-05-24T19:57:26.516Z,6.90
2023-05-24T20:02:29.044Z,5.72
2023-05-24T20:07:31.942Z,6.13
2023-05-24T20:12:34.745Z,6.50
2023-05-24T20:17:37.368Z,4.35
2023-05-24T20:22:39.942Z,5.03
2023-05-24T20:27:42.993Z,3.72
2023-05-24T20:32:46.175Z,5.57
2023-05-24T20:37:48.760Z,5.32
2023-05-24T20:42:51.815Z,3.45
2023-05-24T20:47:54.884Z,5.25
2023-05-24T20:52:57.356Z,5.63
2023-05-24T20:57:59.857Z,4.75
2023-05-24T21:03:02.461Z,4.20
2023-05-24T21:08:05.146Z,5.40
2023-05-24T21:13:07.663Z,3.90
2023-05-24T21:18:10.187Z,6.47
2023-05-24T21:23:13.099Z,5.20
2023-05-24T21:28:15.653Z,4.00
2023-05-24T21:33:18.209Z,5.18
2023-05-24T21:38:20.702Z,5.05
2023-05-24T21:43:24.206Z,5.88
2023-05-24T21:48:26.841Z,6.20
2023-05-24T21:53:29.326Z,5.35
2023-05-24T21:58:31.916Z,4.95
2023-05-24T22:03:34.975Z,5.55
2023-05-24T22:08:37.566Z,6.38
2023-05-24T22:13:40.320Z,5.38
2023-05-24T22:18:42.853Z,5.30
2023-05-24T22:23:46.024Z,5.25
2023-05-24T22:28:56.457Z,5.13
2023-05-24T22:34:02.210Z,3.95
2023-05-24T22:39:05.620Z,6.10
2023-05-24T22:44:08.244Z,4.55
2023-05-24T22:49:13.412Z,5.53
2023-05-24T22:54:16.361Z,6.00
2023-05-24T22:59:18.862Z,3.75
2023-05-24T23:04:21.909Z,5.07
2023-05-24T23:09:34.727Z,5.45
2023-05-24T23:14:39.316Z,5.40
2023-05-24T23:19:43.957Z,6.32
2023-05-24T23:24:47.643Z,5.80
2023-05-24T23:29:50.178Z,5.68
2023-05-24T23:34:52.695Z,4.97
2023-05-24T23:39:55.314Z,4.80
2023-05-24T23:44:57.853Z,5.53
2023-05-24T23:50:00.435Z,5.80
2023-05-24T23:55:03.802Z,4.65
